Lizarda, Brazil
Current Conditions -  °F | °C
As of 7:00 PM on Monday 24 Nov 2014 (Local Time) from SBPJ Reporting Station
Thunderstorm Thunderstorm  
Wind Chill: 79°   Ceiling: Unl
Heat Index: 81°   Visibility: 6mi
Dew Point: 70°   Wind: 3mph
Humidity: 74%   Direction: 60°ENE
Pressure: 29.85"   Gusts: NA
Location:  9.58°S, 46.68°W
Report Text: SBPJ 242200Z 06003KT 9999 VCTS FEW025 FEW030CB 26/21 Q1011 RETS
Loading
Personal Weather Stations






























Interactive Weather Map New forecast layout! Learn more

10-Day Weather Forecast

Advertisements
Track Severe Weather on mobile